Time;durP1;ratioP1;P1;durP2;ratioP2;P2;SDS_P1;SDS_P2;PMS_P1;PMS_P2;Temp;Humidity;BMP_temperature;BMP_pressure;BME280_temperature;BME280_humidity;BME280_pressure;Samples;Min_cycle;Max_cycle;Signal;HPM_P1;HPM_P2
2021/04/23 00:00:10;;;;;;;8.47;4.40;;;;;;;;;;5122074;28;20280;-74
2021/04/23 00:02:37;;;;;;;7.37;4.57;;;;;;;;;;5122054;28;20243;-74
2021/04/23 00:05:05;;;;;;;7.43;4.67;;;;;;;;;;5122033;27;20228;-73
2021/04/23 00:07:32;;;;;;;5.93;4.20;;;;;;;;;;5121871;28;20251;-74
2021/04/23 00:09:59;;;;;;;6.33;4.57;;;;;;;;;;5121862;28;20566;-74
2021/04/23 00:12:26;;;;;;;7.47;4.70;;;;;;;;;;5121204;28;20626;-73
2021/04/23 00:14:53;;;;;;;9.00;5.03;;;;;;;;;;5121820;28;20259;-73
2021/04/23 00:17:20;;;;;;;7.60;4.57;;;;;;;;;;5121872;28;20268;-74
2021/04/23 00:19:47;;;;;;;6.80;4.80;;;;;;;;;;5121557;28;20262;-74
2021/04/23 00:22:15;;;;;;;5.60;4.57;;;;;;;;;;5121582;28;20262;-74
2021/04/23 00:24:43;;;;;;;8.40;4.70;;;;;;;;;;5121356;28;20774;-74
2021/04/23 00:27:10;;;;;;;7.03;4.30;;;;;;;;;;5120879;28;20292;-74
2021/04/23 00:29:37;;;;;;;7.80;4.33;;;;;;;;;;5121494;28;20232;-74
2021/04/23 00:34:50;;;;;;;4.93;4.37;;;;;;;;;;5121523;28;20220;-73
2021/04/23 00:37:18;;;;;;;5.10;4.03;;;;;;;;;;5121122;28;20264;-74
2021/04/23 00:39:45;;;;;;;5.60;4.50;;;;;;;;;;5121323;27;20300;-74
2021/04/23 00:42:12;;;;;;;5.30;3.90;;;;;;;;;;5120991;28;20205;-74
2021/04/23 00:44:39;;;;;;;5.67;4.47;;;;;;;;;;5120997;28;20282;-73
2021/04/23 00:47:06;;;;;;;5.63;4.23;;;;;;;;;;5120989;28;20702;-73
2021/04/23 00:49:33;;;;;;;4.37;3.77;;;;;;;;;;5121051;28;20213;-72
2021/04/23 00:52:02;;;;;;;6.47;3.80;;;;;;;;;;5121110;28;20220;-73
2021/04/23 00:54:31;;;;;;;6.63;4.30;;;;;;;;;;5120850;28;20763;-73
2021/04/23 00:56:58;;;;;;;5.53;4.23;;;;;;;;;;5118590;28;20292;-74
2021/04/23 00:59:26;;;;;;;5.67;4.00;;;;;;;;;;5111225;28;20208;-73
2021/04/23 01:01:55;;;;;;;6.03;4.30;;;;;;;;;;5120855;28;20235;-74
2021/04/23 01:04:22;;;;;;;8.73;4.03;;;;;;;;;;5120753;28;20227;-73
2021/04/23 01:06:49;;;;;;;5.80;3.90;;;;;;;;;;5120693;28;20201;-74
2021/04/23 01:09:19;;;;;;;7.83;3.67;;;;;;;;;;5120868;28;20209;-74
2021/04/23 01:11:47;;;;;;;4.77;4.27;;;;;;;;;;5120064;28;20260;-73
2021/04/23 01:14:15;;;;;;;6.23;3.83;;;;;;;;;;5120803;27;20207;-74
2021/04/23 01:16:42;;;;;;;4.23;3.77;;;;;;;;;;5120699;28;20244;-73
2021/04/23 01:19:11;;;;;;;5.33;3.80;;;;;;;;;;5120811;28;20211;-73
2021/04/23 01:21:39;;;;;;;6.77;4.10;;;;;;;;;;5120697;28;20653;-73
2021/04/23 01:24:08;;;;;;;5.00;4.03;;;;;;;;;;5120580;28;20207;-74
2021/04/23 01:26:36;;;;;;;4.93;4.17;;;;;;;;;;5120068;28;20215;-73
2021/04/23 01:29:04;;;;;;;5.10;4.27;;;;;;;;;;5120051;28;20318;-73
2021/04/23 01:31:32;;;;;;;9.77;4.53;;;;;;;;;;5120111;28;20641;-73
2021/04/23 01:34:01;;;;;;;6.97;4.43;;;;;;;;;;5120044;28;20752;-74
2021/04/23 01:36:28;;;;;;;6.70;4.93;;;;;;;;;;5120299;28;20276;-74
2021/04/23 01:38:56;;;;;;;6.23;4.13;;;;;;;;;;5120057;27;20304;-73
2021/04/23 01:41:23;;;;;;;7.17;3.83;;;;;;;;;;5119815;28;20292;-73
2021/04/23 01:43:51;;;;;;;5.73;4.00;;;;;;;;;;5120005;28;20288;-73
2021/04/23 01:46:18;;;;;;;5.43;3.70;;;;;;;;;;5119786;28;20307;-73
2021/04/23 01:48:45;;;;;;;7.37;4.17;;;;;;;;;;5119849;28;20201;-74
2021/04/23 01:51:14;;;;;;;7.60;4.07;;;;;;;;;;5119893;28;20248;-74
2021/04/23 01:53:43;;;;;;;5.30;3.83;;;;;;;;;;5119947;28;20228;-73
2021/04/23 01:56:11;;;;;;;7.77;4.67;;;;;;;;;;5119499;28;20267;-73
2021/04/23 01:58:39;;;;;;;6.67;3.80;;;;;;;;;;5108194;28;20219;-73
2021/04/23 02:01:07;;;;;;;8.53;4.30;;;;;;;;;;5119886;28;20204;-73
2021/04/23 02:03:35;;;;;;;6.63;3.77;;;;;;;;;;5119572;28;20337;-73
2021/04/23 02:06:02;;;;;;;5.20;4.40;;;;;;;;;;5119673;28;20312;-73
2021/04/23 02:08:29;;;;;;;7.37;4.17;;;;;;;;;;5119422;28;20263;-73
2021/04/23 02:10:57;;;;;;;7.80;4.67;;;;;;;;;;5119332;28;20268;-73
2021/04/23 02:13:26;;;;;;;7.43;3.83;;;;;;;;;;5118259;28;20311;-73
2021/04/23 02:15:54;;;;;;;6.20;3.50;;;;;;;;;;5119290;28;20652;-73
2021/04/23 02:18:21;;;;;;;5.20;3.53;;;;;;;;;;5119244;28;20621;-73
2021/04/23 02:20:49;;;;;;;8.03;3.93;;;;;;;;;;5119204;28;20254;-73
2021/04/23 02:23:19;;;;;;;6.77;3.77;;;;;;;;;;5119576;28;20240;-74
2021/04/23 02:25:46;;;;;;;6.03;3.67;;;;;;;;;;5118929;28;20233;-72
2021/04/23 02:28:14;;;;;;;8.40;3.90;;;;;;;;;;5118819;28;20233;-73
2021/04/23 02:30:43;;;;;;;8.07;4.00;;;;;;;;;;5119208;28;20293;-73
2021/04/23 02:33:12;;;;;;;5.33;3.87;;;;;;;;;;5119269;28;20311;-74
2021/04/23 02:35:39;;;;;;;7.73;4.40;;;;;;;;;;5118997;28;20260;-73
2021/04/23 02:38:06;;;;;;;4.67;3.83;;;;;;;;;;5119133;28;20211;-74
2021/04/23 02:40:33;;;;;;;7.40;4.23;;;;;;;;;;5118831;28;20208;-73
2021/04/23 02:43:01;;;;;;;6.57;4.53;;;;;;;;;;5118899;28;20284;-74
2021/04/23 02:45:32;;;;;;;7.50;4.47;;;;;;;;;;5118831;28;20264;-74
2021/04/23 02:48:00;;;;;;;5.73;4.30;;;;;;;;;;5119021;28;20288;-74
2021/04/23 02:50:28;;;;;;;6.43;4.17;;;;;;;;;;5118615;28;20205;-74
2021/04/23 02:52:56;;;;;;;6.63;4.27;;;;;;;;;;5118570;28;20316;-74
2021/04/23 02:55:23;;;;;;;5.20;4.13;;;;;;;;;;5118636;28;20264;-73
2021/04/23 02:57:54;;;;;;;5.57;4.43;;;;;;;;;;5109406;28;20296;-74
2021/04/23 03:00:22;;;;;;;7.50;4.60;;;;;;;;;;5116695;28;20679;-73
2021/04/23 03:02:49;;;;;;;5.17;4.07;;;;;;;;;;5118724;28;20280;-74
2021/04/23 03:05:18;;;;;;;6.67;3.80;;;;;;;;;;5118637;28;20261;-73
2021/04/23 03:07:45;;;;;;;7.87;4.23;;;;;;;;;;5118698;28;20201;-74
2021/04/23 03:10:13;;;;;;;6.43;4.47;;;;;;;;;;5118227;28;20607;-74
2021/04/23 03:12:40;;;;;;;6.93;3.83;;;;;;;;;;5118241;28;20311;-74
2021/04/23 03:15:08;;;;;;;6.87;4.13;;;;;;;;;;5118571;28;20284;-73
2021/04/23 03:17:35;;;;;;;5.77;4.07;;;;;;;;;;5118605;28;20236;-73
2021/04/23 03:20:10;;;;;;;7.20;4.27;;;;;;;;;;5118360;28;20200;-73
2021/04/23 03:22:38;;;;;;;9.10;4.40;;;;;;;;;;5118444;28;20562;-73
2021/04/23 03:25:05;;;;;;;6.43;4.17;;;;;;;;;;5118244;28;20225;-74
2021/04/23 03:27:32;;;;;;;6.30;4.80;;;;;;;;;;5117741;28;20243;-74
2021/04/23 03:30:00;;;;;;;7.47;4.03;;;;;;;;;;5118149;28;20672;-73
2021/04/23 03:32:27;;;;;;;6.70;4.17;;;;;;;;;;5118304;28;20308;-73
2021/04/23 03:34:54;;;;;;;8.47;4.73;;;;;;;;;;5118274;28;20225;-73
2021/04/23 03:37:21;;;;;;;6.80;4.30;;;;;;;;;;5117984;28;20667;-73
2021/04/23 03:39:49;;;;;;;7.17;4.80;;;;;;;;;;5118402;28;20204;-74
2021/04/23 03:42:16;;;;;;;10.03;3.43;;;;;;;;;;5117634;28;20236;-73
2021/04/23 03:44:43;;;;;;;8.20;3.63;;;;;;;;;;5117970;28;20255;-73
2021/04/23 03:47:10;;;;;;;6.50;4.20;;;;;;;;;;5118177;28;20288;-73
2021/04/23 03:49:41;;;;;;;5.60;3.80;;;;;;;;;;5118335;28;20208;-73
2021/04/23 03:52:08;;;;;;;5.63;3.77;;;;;;;;;;5118050;28;20227;-73
2021/04/23 03:54:36;;;;;;;8.80;3.97;;;;;;;;;;5117901;28;20217;-73
2021/04/23 03:57:04;;;;;;;7.03;3.97;;;;;;;;;;5115237;28;20287;-73
2021/04/23 03:59:32;;;;;;;7.47;3.93;;;;;;;;;;5109347;28;20204;-74
2021/04/23 04:01:59;;;;;;;4.27;3.60;;;;;;;;;;5117851;28;20296;-73
2021/04/23 04:04:26;;;;;;;5.17;3.27;;;;;;;;;;5118064;28;20231;-73
2021/04/23 04:06:53;;;;;;;10.07;3.43;;;;;;;;;;5118092;28;20235;-74
2021/04/23 04:09:20;;;;;;;6.90;3.67;;;;;;;;;;5118065;28;20212;-73
2021/04/23 04:11:47;;;;;;;8.07;3.27;;;;;;;;;;5117343;28;20240;-73
2021/04/23 04:14:15;;;;;;;4.13;3.20;;;;;;;;;;5117714;28;20288;-73
2021/04/23 04:16:42;;;;;;;5.97;3.83;;;;;;;;;;5118060;28;20295;-73
2021/04/23 04:19:09;;;;;;;6.53;3.10;;;;;;;;;;5118015;28;20205;-73
2021/04/23 04:21:36;;;;;;;4.87;2.90;;;;;;;;;;5117976;28;20215;-73
2021/04/23 04:24:04;;;;;;;6.50;2.93;;;;;;;;;;5117674;28;20207;-73
2021/04/23 04:26:31;;;;;;;10.20;3.33;;;;;;;;;;5117331;28;20209;-73
2021/04/23 04:28:58;;;;;;;3.53;2.33;;;;;;;;;;5117531;28;20270;-73
2021/04/23 04:31:26;;;;;;;5.17;2.63;;;;;;;;;;5117617;28;20575;-73
2021/04/23 04:33:53;;;;;;;5.33;2.63;;;;;;;;;;5117509;28;20224;-73
2021/04/23 04:36:20;;;;;;;2.70;2.50;;;;;;;;;;5118877;28;20300;-73
2021/04/23 04:38:47;;;;;;;4.97;2.70;;;;;;;;;;5121539;28;20243;-73
2021/04/23 04:41:15;;;;;;;4.93;2.40;;;;;;;;;;5120786;28;20304;-74
2021/04/23 04:43:42;;;;;;;4.27;2.40;;;;;;;;;;5121303;28;20284;-74
2021/04/23 04:46:10;;;;;;;4.70;2.73;;;;;;;;;;5120979;28;20312;-73
2021/04/23 04:48:38;;;;;;;4.30;2.90;;;;;;;;;;5120995;28;20201;-73
2021/04/23 04:51:05;;;;;;;3.83;2.80;;;;;;;;;;5121271;28;20196;-73
2021/04/23 04:53:33;;;;;;;4.53;2.43;;;;;;;;;;5120942;28;20252;-73
2021/04/23 04:56:00;;;;;;;3.50;2.10;;;;;;;;;;5120848;28;20231;-73
2021/04/23 04:58:29;;;;;;;2.30;2.07;;;;;;;;;;5109059;28;20292;-73
2021/04/23 05:00:56;;;;;;;3.97;2.40;;;;;;;;;;5120813;28;20288;-73
2021/04/23 05:03:24;;;;;;;4.23;2.20;;;;;;;;;;5120948;28;20260;-73
2021/04/23 05:05:52;;;;;;;3.87;2.23;;;;;;;;;;5120720;28;20232;-73
2021/04/23 05:08:19;;;;;;;5.00;2.50;;;;;;;;;;5120630;28;20763;-73
2021/04/23 05:10:46;;;;;;;3.73;2.30;;;;;;;;;;5120401;28;20247;-73
2021/04/23 05:13:13;;;;;;;4.10;1.90;;;;;;;;;;5121538;27;20235;-73
2021/04/23 05:15:40;;;;;;;4.93;2.10;;;;;;;;;;5120276;28;20321;-73
2021/04/23 05:18:07;;;;;;;2.17;1.97;;;;;;;;;;5123420;27;20231;-73
2021/04/23 05:20:35;;;;;;;6.73;2.20;;;;;;;;;;5120342;28;20235;-73
2021/04/23 05:23:03;;;;;;;2.87;2.20;;;;;;;;;;5122311;27;20271;-73
2021/04/23 05:25:31;;;;;;;7.07;2.20;;;;;;;;;;5120245;27;20303;-73
2021/04/23 05:27:58;;;;;;;6.00;2.70;;;;;;;;;;5120183;27;20239;-73
2021/04/23 05:30:26;;;;;;;5.53;2.30;;;;;;;;;;5121158;27;20719;-73
2021/04/23 05:32:53;;;;;;;3.70;2.33;;;;;;;;;;5122063;27;20284;-70
2021/04/23 05:35:26;;;;;;;6.40;1.93;;;;;;;;;;5120062;28;20266;-71
2021/04/23 05:37:53;;;;;;;5.07;2.37;;;;;;;;;;5117639;28;20649;-71
2021/04/23 05:40:23;;;;;;;2.80;1.83;;;;;;;;;;5119651;28;20296;-71
2021/04/23 05:42:50;;;;;;;4.97;2.17;;;;;;;;;;5119953;28;20608;-71
2021/04/23 05:45:18;;;;;;;5.07;2.20;;;;;;;;;;5120002;28;20268;-71
2021/04/23 05:47:45;;;;;;;2.90;2.23;;;;;;;;;;5119795;28;20243;-70
2021/04/23 05:50:14;;;;;;;2.33;1.70;;;;;;;;;;5120186;28;20207;-70
2021/04/23 05:52:41;;;;;;;2.90;1.60;;;;;;;;;;5119953;28;20234;-71
2021/04/23 05:55:10;;;;;;;3.83;1.80;;;;;;;;;;5119736;28;20224;-70
2021/04/23 05:57:39;;;;;;;3.60;2.17;;;;;;;;;;5113606;28;20225;-70
2021/04/23 06:00:07;;;;;;;3.43;1.77;;;;;;;;;;5120284;27;20231;-70
2021/04/23 06:02:33;;;;;;;3.87;1.60;;;;;;;;;;5123504;27;20684;-69
2021/04/23 06:05:01;;;;;;;3.17;1.87;;;;;;;;;;5134916;27;20224;-71
2021/04/23 06:07:28;;;;;;;3.37;1.93;;;;;;;;;;5135425;27;20251;-70
2021/04/23 06:09:55;;;;;;;2.80;2.00;;;;;;;;;;5119613;28;20692;-70
2021/04/23 06:12:22;;;;;;;5.73;2.00;;;;;;;;;;5119233;28;20232;-71
2021/04/23 06:14:50;;;;;;;3.70;2.03;;;;;;;;;;5119711;27;20258;-70
2021/04/23 06:17:17;;;;;;;2.23;1.77;;;;;;;;;;5135380;27;20204;-71
2021/04/23 06:19:44;;;;;;;3.80;1.83;;;;;;;;;;5140327;27;20224;-71
2021/04/23 06:22:11;;;;;;;3.93;2.00;;;;;;;;;;5140265;27;20204;-71
2021/04/23 06:24:38;;;;;;;6.57;2.17;;;;;;;;;;5129521;27;20233;-70
2021/04/23 06:27:06;;;;;;;2.47;1.63;;;;;;;;;;5115828;28;20232;-71
2021/04/23 06:29:33;;;;;;;4.67;1.80;;;;;;;;;;5119383;28;20213;-71
2021/04/23 06:32:01;;;;;;;5.40;2.00;;;;;;;;;;5119444;28;20201;-70
2021/04/23 06:34:29;;;;;;;3.97;1.80;;;;;;;;;;5119005;28;20252;-71
2021/04/23 06:36:56;;;;;;;4.17;2.60;;;;;;;;;;5123354;27;20335;-70
2021/04/23 06:39:23;;;;;;;7.33;1.77;;;;;;;;;;5139699;27;20208;-69
2021/04/23 06:41:50;;;;;;;5.07;2.03;;;;;;;;;;5130635;27;20239;-70
2021/04/23 06:44:17;;;;;;;5.57;1.90;;;;;;;;;;5118747;28;20209;-69
2021/04/23 06:46:44;;;;;;;4.27;2.00;;;;;;;;;;5119002;28;20284;-70
2021/04/23 06:49:13;;;;;;;3.67;1.90;;;;;;;;;;5118659;28;20236;-70
2021/04/23 06:51:40;;;;;;;8.00;2.13;;;;;;;;;;5118956;27;20204;-70
2021/04/23 06:54:08;;;;;;;3.40;2.00;;;;;;;;;;5118437;27;20311;-70
2021/04/23 06:56:35;;;;;;;4.10;2.43;;;;;;;;;;5118532;28;20236;-70
2021/04/23 06:59:02;;;;;;;4.60;2.40;;;;;;;;;;5109838;28;20205;-69
2021/04/23 07:01:29;;;;;;;3.57;2.17;;;;;;;;;;5118283;28;20193;-71
2021/04/23 07:03:56;;;;;;;5.67;2.00;;;;;;;;;;5118826;28;20201;-71
2021/04/23 07:06:24;;;;;;;3.13;1.87;;;;;;;;;;5118738;28;20236;-71
2021/04/23 07:08:51;;;;;;;4.17;2.17;;;;;;;;;;5118660;28;20740;-71
2021/04/23 07:11:19;;;;;;;3.60;1.87;;;;;;;;;;5118043;28;20642;-70
2021/04/23 07:13:46;;;;;;;3.43;1.90;;;;;;;;;;5118666;28;20311;-71
2021/04/23 07:16:13;;;;;;;2.60;1.90;;;;;;;;;;5114735;28;20300;-71
2021/04/23 07:18:42;;;;;;;7.47;2.10;;;;;;;;;;5118623;28;20235;-71
2021/04/23 07:21:12;;;;;;;3.93;2.03;;;;;;;;;;5118564;28;20200;-71
2021/04/23 07:23:40;;;;;;;5.20;2.00;;;;;;;;;;5118419;28;20197;-69
2021/04/23 07:26:07;;;;;;;7.63;2.67;;;;;;;;;;5117865;28;20606;-70
2021/04/23 07:28:34;;;;;;;8.17;1.87;;;;;;;;;;5111164;28;20369;-70
2021/04/23 07:31:01;;;;;;;2.80;1.60;;;;;;;;;;5122733;28;20222;-70
2021/04/23 07:33:29;;;;;;;8.53;1.97;;;;;;;;;;5111682;27;20221;-71
2021/04/23 07:35:56;;;;;;;5.63;2.53;;;;;;;;;;5107368;28;20249;-70
2021/04/23 07:38:23;;;;;;;3.27;1.97;;;;;;;;;;5107459;28;20220;-71
2021/04/23 07:40:51;;;;;;;6.97;2.87;;;;;;;;;;5106543;28;20289;-71
2021/04/23 07:43:18;;;;;;;5.07;2.13;;;;;;;;;;5132219;28;20202;-69
2021/04/23 07:46:00;;;;;;;3.60;2.50;;;;;;;;;;5108959;27;20223;-72
2021/04/23 07:48:27;;;;;;;4.50;2.13;;;;;;;;;;5107655;28;20201;-72
2021/04/23 07:50:56;;;;;;;4.07;1.80;;;;;;;;;;5104187;28;20938;-72
2021/04/23 07:53:23;;;;;;;4.97;2.23;;;;;;;;;;5107260;28;20249;-72
2021/04/23 07:55:51;;;;;;;5.17;2.60;;;;;;;;;;5105275;28;20252;-72
2021/04/23 07:58:18;;;;;;;5.37;2.50;;;;;;;;;;5107316;28;20288;-72
2021/04/23 08:00:46;;;;;;;4.77;2.43;;;;;;;;;;5105279;28;20310;-69
2021/04/23 08:03:13;;;;;;;5.67;2.93;;;;;;;;;;5105344;28;20658;-71
2021/04/23 08:05:40;;;;;;;7.20;2.63;;;;;;;;;;5102929;28;20217;-71
2021/04/23 08:08:07;;;;;;;3.53;2.30;;;;;;;;;;5115841;28;20288;-71
2021/04/23 08:10:34;;;;;;;8.60;2.87;;;;;;;;;;5117520;28;20262;-71
2021/04/23 08:13:03;;;;;;;4.30;2.60;;;;;;;;;;5138852;27;20306;-71
2021/04/23 08:15:30;;;;;;;4.73;2.60;;;;;;;;;;5142183;27;20220;-71
2021/04/23 08:17:58;;;;;;;5.60;2.70;;;;;;;;;;5117936;27;20261;-71
2021/04/23 08:20:26;;;;;;;4.77;2.57;;;;;;;;;;5109569;28;20193;-72
2021/04/23 08:22:53;;;;;;;8.57;2.97;;;;;;;;;;5113460;27;20197;-72
2021/04/23 08:25:20;;;;;;;6.00;3.10;;;;;;;;;;5108351;28;20313;-71
2021/04/23 08:27:48;;;;;;;7.10;3.17;;;;;;;;;;5108434;28;20296;-71
2021/04/23 08:30:17;;;;;;;7.53;2.80;;;;;;;;;;5106788;28;20284;-71
2021/04/23 08:32:44;;;;;;;5.50;2.80;;;;;;;;;;5108435;28;20637;-71
2021/04/23 08:35:12;;;;;;;9.50;3.30;;;;;;;;;;5111709;28;20221;-71
2021/04/23 08:37:39;;;;;;;5.83;2.83;;;;;;;;;;5119128;28;20201;-71
2021/04/23 08:40:08;;;;;;;3.67;2.60;;;;;;;;;;5120356;28;20204;-71
2021/04/23 08:42:35;;;;;;;8.47;3.50;;;;;;;;;;5118151;28;20565;-70
2021/04/23 08:45:04;;;;;;;6.77;2.93;;;;;;;;;;5120849;28;20308;-72
2021/04/23 08:47:32;;;;;;;5.97;3.53;;;;;;;;;;5119140;28;20208;-72
2021/04/23 08:50:00;;;;;;;4.50;2.63;;;;;;;;;;5121203;27;20295;-72
2021/04/23 08:52:28;;;;;;;7.67;2.83;;;;;;;;;;5106867;28;20208;-73
2021/04/23 08:54:56;;;;;;;4.87;2.93;;;;;;;;;;5108375;28;20316;-73
2021/04/23 08:57:24;;;;;;;5.50;3.23;;;;;;;;;;5105929;28;20200;-73
2021/04/23 08:59:52;;;;;;;7.63;3.50;;;;;;;;;;5113002;28;20200;-73
2021/04/23 09:02:19;;;;;;;7.33;3.73;;;;;;;;;;5126636;27;20659;-72
2021/04/23 09:04:48;;;;;;;5.83;2.80;;;;;;;;;;5141236;27;20239;-72
2021/04/23 09:07:15;;;;;;;11.67;3.30;;;;;;;;;;5141155;27;20204;-72
2021/04/23 09:09:43;;;;;;;3.73;2.80;;;;;;;;;;5141126;27;20211;-72
2021/04/23 09:12:18;;;;;;;8.30;2.97;;;;;;;;;;5116419;27;20255;-72
2021/04/23 09:14:50;;;;;;;5.87;3.30;;;;;;;;;;5106431;28;20220;-72
2021/04/23 09:17:18;;;;;;;4.13;3.30;;;;;;;;;;5107976;28;20201;-72
2021/04/23 09:19:46;;;;;;;4.80;3.47;;;;;;;;;;5108063;28;20201;-72
2021/04/23 09:22:24;;;;;;;6.33;3.73;;;;;;;;;;5115592;28;20208;-72
2021/04/23 09:24:59;;;;;;;6.63;4.13;;;;;;;;;;5107395;28;20225;-72
2021/04/23 09:27:29;;;;;;;7.27;4.53;;;;;;;;;;5106982;28;20229;-72
2021/04/23 09:29:57;;;;;;;9.03;4.00;;;;;;;;;;5105708;28;20209;-72
2021/04/23 09:32:27;;;;;;;6.73;4.43;;;;;;;;;;5107712;27;20652;-72
2021/04/23 09:34:57;;;;;;;5.67;3.90;;;;;;;;;;5119670;28;20244;-72
2021/04/23 09:37:26;;;;;;;11.47;4.53;;;;;;;;;;5120066;28;20216;-72
2021/04/23 09:40:05;;;;;;;7.50;4.47;;;;;;;;;;5117003;28;20612;-72
2021/04/23 09:42:42;;;;;;;7.23;4.63;;;;;;;;;;5104415;28;20266;-72
2021/04/23 09:45:10;;;;;;;6.87;4.80;;;;;;;;;;5106377;28;20224;-72
2021/04/23 09:47:38;;;;;;;6.77;4.77;;;;;;;;;;5105979;28;20633;-71
2021/04/23 09:50:06;;;;;;;6.33;4.77;;;;;;;;;;5107353;28;20201;-72
2021/04/23 09:52:44;;;;;;;13.03;4.70;;;;;;;;;;5107538;28;20284;-71
2021/04/23 09:55:11;;;;;;;6.77;4.40;;;;;;;;;;5107760;28;20212;-73
2021/04/23 09:57:40;;;;;;;10.73;5.00;;;;;;;;;;5109141;28;20692;-72
2021/04/23 10:00:08;;;;;;;7.40;4.57;;;;;;;;;;5114053;28;20196;-72
2021/04/23 10:02:36;;;;;;;5.30;4.53;;;;;;;;;;5122523;27;20264;-72
2021/04/23 10:05:04;;;;;;;11.63;5.27;;;;;;;;;;5140075;27;20216;-71
2021/04/23 10:07:32;;;;;;;12.17;5.47;;;;;;;;;;5115377;27;20233;-69
2021/04/23 10:10:02;;;;;;;7.70;5.53;;;;;;;;;;5107091;28;20236;-66
2021/04/23 10:12:33;;;;;;;12.20;4.30;;;;;;;;;;5106762;28;20673;-68
2021/04/23 10:15:01;;;;;;;5.47;4.77;;;;;;;;;;5106276;28;20257;-68
2021/04/23 10:17:29;;;;;;;8.27;4.77;;;;;;;;;;5109986;28;20278;-69
2021/04/23 10:19:57;;;;;;;6.67;4.77;;;;;;;;;;5119398;28;20287;-71
2021/04/23 10:22:25;;;;;;;8.50;5.33;;;;;;;;;;5119256;28;20250;-71
2021/04/23 10:24:52;;;;;;;15.47;5.47;;;;;;;;;;5118839;28;20318;-71
2021/04/23 10:27:20;;;;;;;9.97;5.20;;;;;;;;;;5118471;28;20247;-71
2021/04/23 10:29:49;;;;;;;7.23;5.40;;;;;;;;;;5118820;28;20702;-70
2021/04/23 10:32:16;;;;;;;7.00;4.53;;;;;;;;;;5115599;28;20202;-69
2021/04/23 10:34:43;;;;;;;11.33;4.83;;;;;;;;;;5119000;27;20229;-69
2021/04/23 10:37:10;;;;;;;10.40;5.33;;;;;;;;;;5118555;28;20291;-71
2021/04/23 10:39:39;;;;;;;6.60;4.37;;;;;;;;;;5107568;28;20270;-71
2021/04/23 10:42:07;;;;;;;7.63;5.13;;;;;;;;;;5104525;28;20229;-71
2021/04/23 10:44:59;;;;;;;10.20;4.73;;;;;;;;;;5107214;28;20221;-70
2021/04/23 10:47:33;;;;;;;10.73;6.37;;;;;;;;;;5107687;28;20197;-70
2021/04/23 10:50:07;;;;;;;11.93;5.67;;;;;;;;;;5104325;28;20202;-70
2021/04/23 10:52:34;;;;;;;9.27;5.23;;;;;;;;;;5108437;28;20260;-72
2021/04/23 10:55:06;;;;;;;6.10;4.63;;;;;;;;;;5103114;28;20288;-72
2021/04/23 10:57:57;;;;;;;7.77;5.33;;;;;;;;;;5104393;28;20316;-71
2021/04/23 11:00:32;;;;;;;11.63;5.17;;;;;;;;;;5102443;28;20228;-72
2021/04/23 11:03:17;;;;;;;7.00;4.83;;;;;;;;;;5109630;27;20287;-71
2021/04/23 11:05:45;;;;;;;7.87;5.30;;;;;;;;;;5105185;28;20790;-71
2021/04/23 11:08:12;;;;;;;9.50;4.70;;;;;;;;;;5105744;28;20237;-71
2021/04/23 11:10:54;;;;;;;7.97;5.17;;;;;;;;;;5103268;28;20225;-69
2021/04/23 11:13:24;;;;;;;10.30;5.13;;;;;;;;;;5103591;28;20647;-70
2021/04/23 11:16:06;;;;;;;11.83;5.23;;;;;;;;;;5105266;28;20305;-71
2021/04/23 11:18:34;;;;;;;9.53;5.17;;;;;;;;;;5104347;28;20657;-71
2021/04/23 11:21:16;;;;;;;7.20;4.93;;;;;;;;;;5108989;28;20230;-70
2021/04/23 11:24:01;;;;;;;7.13;5.13;;;;;;;;;;5098812;28;20228;-70
2021/04/23 11:26:42;;;;;;;10.53;5.37;;;;;;;;;;5100132;28;20634;-71
2021/04/23 11:29:13;;;;;;;8.77;5.77;;;;;;;;;;5102349;28;20669;-71
2021/04/23 11:31:55;;;;;;;8.87;5.30;;;;;;;;;;5105249;28;20256;-71
2021/04/23 11:34:33;;;;;;;8.83;5.80;;;;;;;;;;5104004;28;20225;-73
2021/04/23 11:37:01;;;;;;;6.13;4.70;;;;;;;;;;5102551;28;20283;-72
2021/04/23 11:39:32;;;;;;;10.80;5.27;;;;;;;;;;5118565;28;20292;-71
2021/04/23 11:42:15;;;;;;;8.17;5.70;;;;;;;;;;5102731;28;20221;-71
2021/04/23 11:44:50;;;;;;;7.37;5.53;;;;;;;;;;5105132;28;20218;-71
2021/04/23 11:47:18;;;;;;;9.33;5.00;;;;;;;;;;5109457;28;20203;-71
2021/04/23 11:49:46;;;;;;;6.97;4.90;;;;;;;;;;5108278;28;20211;-70
2021/04/23 11:52:13;;;;;;;7.93;4.90;;;;;;;;;;5109502;28;20279;-71
2021/04/23 11:54:42;;;;;;;8.73;5.50;;;;;;;;;;5106280;28;20303;-71
2021/04/23 11:57:10;;;;;;;6.37;4.73;;;;;;;;;;5111560;28;20254;-71
2021/04/23 11:59:55;;;;;;;8.53;5.13;;;;;;;;;;5112512;28;20284;-70
2021/04/23 12:02:41;;;;;;;11.47;5.10;;;;;;;;;;5110701;28;20259;-70
2021/04/23 12:05:19;;;;;;;10.57;4.97;;;;;;;;;;5120836;28;20302;-71
2021/04/23 12:07:46;;;;;;;8.87;4.77;;;;;;;;;;5121566;28;20280;-71
2021/04/23 12:10:16;;;;;;;6.00;4.40;;;;;;;;;;5121586;28;20667;-71
2021/04/23 12:12:44;;;;;;;8.60;4.43;;;;;;;;;;5121743;28;20312;-71
2021/04/23 12:15:19;;;;;;;7.97;5.20;;;;;;;;;;5121378;28;20232;-71
2021/04/23 12:17:46;;;;;;;7.90;4.97;;;;;;;;;;5121810;28;20200;-71
2021/04/23 12:20:16;;;;;;;7.03;4.47;;;;;;;;;;5121434;27;20601;-71
2021/04/23 12:22:44;;;;;;;6.83;4.53;;;;;;;;;;5121601;28;20200;-71
2021/04/23 12:25:21;;;;;;;7.60;4.73;;;;;;;;;;5121327;28;20227;-71
2021/04/23 12:27:48;;;;;;;17.53;5.23;;;;;;;;;;5121392;28;20236;-71
2021/04/23 12:30:27;;;;;;;10.13;5.30;;;;;;;;;;5121548;28;20204;-71
2021/04/23 12:32:55;;;;;;;8.80;4.17;;;;;;;;;;5112693;28;20284;-71
2021/04/23 12:35:34;;;;;;;7.33;4.33;;;;;;;;;;5114202;28;20281;-69
2021/04/23 12:38:01;;;;;;;6.00;4.53;;;;;;;;;;5120750;28;20208;-70
2021/04/23 12:40:35;;;;;;;6.93;4.53;;;;;;;;;;5120689;27;20200;-69
2021/04/23 12:43:17;;;;;;;7.90;4.63;;;;;;;;;;5119248;27;20203;-70
2021/04/23 12:45:45;;;;;;;7.47;5.00;;;;;;;;;;5117135;28;20225;-70
2021/04/23 12:48:13;;;;;;;7.50;4.40;;;;;;;;;;5123672;27;20284;-69
2021/04/23 12:50:42;;;;;;;6.93;4.73;;;;;;;;;;5117815;28;20283;-70
2021/04/23 12:53:09;;;;;;;9.90;4.63;;;;;;;;;;5121006;27;20699;-71
2021/04/23 12:55:37;;;;;;;7.50;4.37;;;;;;;;;;5120562;28;20269;-71
2021/04/23 12:58:04;;;;;;;8.30;3.83;;;;;;;;;;5111544;27;20285;-71
2021/04/23 13:00:35;;;;;;;6.90;3.43;;;;;;;;;;5121088;28;20276;-71
2021/04/23 13:03:02;;;;;;;8.57;3.80;;;;;;;;;;5136772;27;20610;-71
2021/04/23 13:05:30;;;;;;;8.90;5.10;;;;;;;;;;5140789;27;20297;-71
2021/04/23 13:07:59;;;;;;;5.07;3.37;;;;;;;;;;5141459;27;20291;-70
2021/04/23 13:10:29;;;;;;;6.80;4.30;;;;;;;;;;5141057;27;20203;-70
2021/04/23 13:13:05;;;;;;;7.47;3.90;;;;;;;;;;5140993;27;20240;-70
2021/04/23 13:15:34;;;;;;;6.20;3.70;;;;;;;;;;5141402;27;20310;-70
2021/04/23 13:18:12;;;;;;;5.73;3.67;;;;;;;;;;5141060;27;20208;-71
2021/04/23 13:20:47;;;;;;;4.33;3.37;;;;;;;;;;5141275;27;20298;-70
2021/04/23 13:23:15;;;;;;;8.97;4.20;;;;;;;;;;5141388;27;20277;-71
2021/04/23 13:25:45;;;;;;;10.47;4.80;;;;;;;;;;5140501;27;20662;-71
2021/04/23 13:28:15;;;;;;;5.70;3.77;;;;;;;;;;5140956;27;20239;-71
2021/04/23 13:30:49;;;;;;;7.37;3.50;;;;;;;;;;5141024;27;20242;-71
2021/04/23 13:33:21;;;;;;;5.70;3.63;;;;;;;;;;5132530;27;20229;-70
2021/04/23 13:35:48;;;;;;;5.27;3.47;;;;;;;;;;5120092;28;20260;-70
2021/04/23 13:38:25;;;;;;;8.20;3.73;;;;;;;;;;5120021;28;20628;-70
2021/04/23 13:40:53;;;;;;;5.67;3.37;;;;;;;;;;5120009;28;20240;-70
2021/04/23 13:43:24;;;;;;;6.27;3.50;;;;;;;;;;5119951;27;20204;-69
2021/04/23 13:45:58;;;;;;;5.00;3.27;;;;;;;;;;5120182;28;20312;-70
2021/04/23 13:48:27;;;;;;;5.77;3.50;;;;;;;;;;5120103;28;20232;-70
2021/04/23 13:50:58;;;;;;;7.87;3.73;;;;;;;;;;5120276;28;20205;-70
2021/04/23 13:53:36;;;;;;;7.77;3.83;;;;;;;;;;5119838;28;20635;-70
2021/04/23 13:56:05;;;;;;;5.03;3.60;;;;;;;;;;5119633;28;20742;-70
2021/04/23 13:58:32;;;;;;;5.13;3.00;;;;;;;;;;5120256;28;20295;-71
2021/04/23 14:00:59;;;;;;;6.27;3.10;;;;;;;;;;5120792;28;20660;-72
2021/04/23 14:03:27;;;;;;;7.70;3.47;;;;;;;;;;5120085;28;20272;-71
2021/04/23 14:05:55;;;;;;;5.57;3.40;;;;;;;;;;5119730;28;20224;-71
2021/04/23 14:08:22;;;;;;;6.03;3.23;;;;;;;;;;5119796;28;20273;-69
2021/04/23 14:10:50;;;;;;;5.67;3.27;;;;;;;;;;5119540;27;20216;-69
2021/04/23 14:13:17;;;;;;;5.63;3.53;;;;;;;;;;5119662;28;20296;-70
2021/04/23 14:15:45;;;;;;;7.43;3.87;;;;;;;;;;5119516;28;20312;-70
2021/04/23 14:18:12;;;;;;;5.23;2.73;;;;;;;;;;5119320;28;20241;-71
2021/04/23 14:20:39;;;;;;;4.40;3.00;;;;;;;;;;5119526;28;20243;-70
2021/04/23 14:23:06;;;;;;;7.73;3.67;;;;;;;;;;5119498;28;20205;-70
2021/04/23 14:25:34;;;;;;;4.33;2.83;;;;;;;;;;5119091;28;20254;-70
2021/04/23 14:28:02;;;;;;;5.97;3.37;;;;;;;;;;5119227;28;20239;-70
2021/04/23 14:30:29;;;;;;;7.37;3.13;;;;;;;;;;5119036;28;20247;-70
2021/04/23 14:32:56;;;;;;;3.90;2.90;;;;;;;;;;5116506;27;20398;-70
2021/04/23 14:35:22;;;;;;;7.50;3.70;;;;;;;;;;5112875;28;20236;-70
2021/04/23 14:37:49;;;;;;;4.43;3.03;;;;;;;;;;5118435;28;20206;-70
2021/04/23 14:40:16;;;;;;;4.47;3.07;;;;;;;;;;5117512;28;20259;-70
2021/04/23 14:42:43;;;;;;;4.57;3.30;;;;;;;;;;5118778;28;20207;-70
2021/04/23 14:45:12;;;;;;;4.60;2.97;;;;;;;;;;5119029;28;20223;-70
2021/04/23 14:47:39;;;;;;;3.73;2.90;;;;;;;;;;5118932;28;20301;-70
2021/04/23 14:50:07;;;;;;;5.33;3.37;;;;;;;;;;5119147;28;20216;-70
2021/04/23 14:52:34;;;;;;;6.17;2.83;;;;;;;;;;5118970;28;20203;-71
2021/04/23 14:55:01;;;;;;;5.10;2.90;;;;;;;;;;5118484;28;20244;-70